Time;durP1;ratioP1;P1;durP2;ratioP2;P2;SDS_P1;SDS_P2;PMS_P1;PMS_P2;Temp;Humidity;BMP_temperature;BMP_pressure;BME280_temperature;BME280_humidity;BME280_pressure;Samples;Min_cycle;Max_cycle;Signal;HPM_P1;HPM_P2
2022/10/08 00:02:21;;;;;;;0.30;0.30;;;;;;;;;;5023350;28;20191;-78
2022/10/08 00:04:46;;;;;;;0.30;0.30;;;;;;;;;;5023733;28;20184;-79
2022/10/08 00:07:12;;;;;;;0.30;0.30;;;;;;;;;;5021021;28;20207;-78
2022/10/08 00:09:37;;;;;;;0.30;0.30;;;;;;;;;;5025099;28;20194;-78
2022/10/08 00:12:03;;;;;;;0.30;0.30;;;;;;;;;;5026004;28;20185;-78
2022/10/08 00:14:28;;;;;;;0.30;0.30;;;;;;;;;;5023770;28;20297;-80
2022/10/08 00:16:54;;;;;;;0.30;0.30;;;;;;;;;;5026008;28;20594;-80
2022/10/08 00:19:19;;;;;;;0.30;0.30;;;;;;;;;;5024807;28;20521;-80
2022/10/08 00:21:45;;;;;;;0.30;0.30;;;;;;;;;;5025086;28;20182;-80
2022/10/08 00:24:14;;;;;;;0.30;0.30;;;;;;;;;;5021446;28;20176;-80
2022/10/08 00:26:40;;;;;;;0.30;0.30;;;;;;;;;;5022491;28;20256;-80
2022/10/08 00:29:06;;;;;;;0.30;0.30;;;;;;;;;;5026982;28;20184;-80
2022/10/08 00:31:35;;;;;;;0.30;0.30;;;;;;;;;;5027256;28;20431;-78
2022/10/08 00:34:04;;;;;;;0.30;0.30;;;;;;;;;;5022155;28;20174;-80
2022/10/08 00:36:31;;;;;;;0.30;0.30;;;;;;;;;;5023638;28;20213;-79
2022/10/08 00:39:03;;;;;;;0.30;0.30;;;;;;;;;;5023576;28;20179;-79
2022/10/08 00:41:31;;;;;;;0.30;0.30;;;;;;;;;;5023676;28;20210;-80
2022/10/08 00:44:02;;;;;;;0.30;0.30;;;;;;;;;;5023207;28;20183;-80
2022/10/08 00:46:34;;;;;;;0.30;0.30;;;;;;;;;;5024148;28;20225;-79
2022/10/08 00:49:11;;;;;;;0.30;0.30;;;;;;;;;;5023374;28;20647;-78
2022/10/08 00:51:48;;;;;;;0.30;0.30;;;;;;;;;;5016483;28;20166;-78
2022/10/08 00:54:14;;;;;;;0.30;0.30;;;;;;;;;;5020893;28;20175;-80
2022/10/08 00:56:40;;;;;;;0.30;0.30;;;;;;;;;;5023919;28;20207;-80
2022/10/08 00:59:07;;;;;;;0.30;0.30;;;;;;;;;;5025807;28;20745;-79
2022/10/08 01:01:33;;;;;;;0.30;0.30;;;;;;;;;;5026497;28;20191;-80
2022/10/08 01:04:04;;;;;;;0.30;0.30;;;;;;;;;;5026456;28;20175;-80
2022/10/08 01:06:33;;;;;;;0.30;0.30;;;;;;;;;;5021257;28;20206;-78
2022/10/08 01:09:34;;;;;;;0.33;0.33;;;;;;;;;;5025954;28;20179;-79
2022/10/08 01:12:35;;;;;;;0.30;0.30;;;;;;;;;;5025165;28;20187;-79
2022/10/08 01:15:10;;;;;;;0.30;0.30;;;;;;;;;;5038746;28;20252;-78
2022/10/08 01:18:21;;;;;;;0.30;0.30;;;;;;;;;;5021266;28;20218;-78
2022/10/08 01:20:59;;;;;;;0.30;0.30;;;;;;;;;;4953937;28;20656;-79
2022/10/08 01:23:32;;;;;;;0.30;0.30;;;;;;;;;;5018040;28;20226;-80
2022/10/08 01:26:35;;;;;;;0.30;0.30;;;;;;;;;;5023369;28;20802;-79
2022/10/08 01:29:22;;;;;;;0.30;0.30;;;;;;;;;;5019773;28;20178;-80
2022/10/08 01:32:03;;;;;;;0.30;0.30;;;;;;;;;;5024896;28;20175;-79
2022/10/08 01:34:45;;;;;;;0.30;0.30;;;;;;;;;;5024038;28;20178;-80
2022/10/08 01:37:17;;;;;;;0.30;0.30;;;;;;;;;;5020329;28;20218;-79
2022/10/08 01:39:46;;;;;;;0.30;0.30;;;;;;;;;;5038891;28;20181;-80
2022/10/08 01:42:12;;;;;;;0.30;0.30;;;;;;;;;;5033302;28;20640;-79
2022/10/08 01:44:46;;;;;;;0.30;0.30;;;;;;;;;;5027359;28;20174;-79
2022/10/08 01:47:16;;;;;;;0.30;0.30;;;;;;;;;;5026336;28;20663;-80
2022/10/08 01:49:54;;;;;;;0.30;0.30;;;;;;;;;;5026945;28;20182;-79
2022/10/08 01:52:25;;;;;;;0.30;0.30;;;;;;;;;;5023815;28;20192;-80
2022/10/08 01:54:55;;;;;;;0.30;0.30;;;;;;;;;;5022350;28;20896;-79
2022/10/08 01:57:22;;;;;;;0.30;0.30;;;;;;;;;;5023196;28;20202;-78
2022/10/08 01:59:55;;;;;;;0.30;0.30;;;;;;;;;;5023449;28;20202;-79
2022/10/08 02:02:23;;;;;;;0.30;0.30;;;;;;;;;;5025911;28;20182;-78
2022/10/08 02:04:50;;;;;;;0.30;0.30;;;;;;;;;;5025140;28;20198;-79
2022/10/08 02:07:18;;;;;;;0.30;0.30;;;;;;;;;;5041807;28;20193;-78
2022/10/08 02:09:50;;;;;;;0.30;0.30;;;;;;;;;;5023799;28;20584;-81
2022/10/08 02:12:16;;;;;;;0.30;0.30;;;;;;;;;;5023062;28;20679;-80
2022/10/08 02:14:47;;;;;;;0.30;0.30;;;;;;;;;;5025631;28;20199;-79
2022/10/08 02:17:38;;;;;;;0.30;0.30;;;;;;;;;;5024733;28;20761;-78
2022/10/08 02:20:14;;;;;;;0.30;0.30;;;;;;;;;;5023642;28;20663;-78
2022/10/08 02:22:51;;;;;;;0.30;0.30;;;;;;;;;;5016644;28;20190;-78
2022/10/08 02:25:32;;;;;;;0.30;0.30;;;;;;;;;;5026348;28;20754;-78
2022/10/08 02:28:14;;;;;;;0.30;0.30;;;;;;;;;;5019917;28;20196;-77
2022/10/08 02:30:51;;;;;;;0.30;0.30;;;;;;;;;;5023859;28;20185;-78
2022/10/08 02:33:30;;;;;;;0.30;0.30;;;;;;;;;;5021044;28;20178;-77
2022/10/08 02:35:59;;;;;;;0.30;0.30;;;;;;;;;;5020383;28;20171;-78
2022/10/08 02:38:35;;;;;;;0.30;0.30;;;;;;;;;;5025226;28;20203;-78
2022/10/08 02:41:03;;;;;;;0.30;0.30;;;;;;;;;;5020116;28;20495;-78
2022/10/08 02:43:32;;;;;;;0.30;0.30;;;;;;;;;;5025232;28;20262;-79
2022/10/08 02:46:06;;;;;;;0.30;0.30;;;;;;;;;;5022348;28;20175;-77
2022/10/08 02:48:35;;;;;;;0.30;0.30;;;;;;;;;;5022891;28;20297;-79
2022/10/08 02:51:05;;;;;;;0.30;0.30;;;;;;;;;;5023696;28;20674;-79
2022/10/08 02:53:34;;;;;;;0.30;0.30;;;;;;;;;;5026341;28;20544;-79
2022/10/08 02:56:03;;;;;;;0.30;0.30;;;;;;;;;;5025455;28;20224;-79
2022/10/08 02:58:30;;;;;;;0.30;0.30;;;;;;;;;;5019550;28;20210;-78
2022/10/08 03:01:14;;;;;;;0.27;0.27;;;;;;;;;;5020969;28;20220;-79
2022/10/08 03:03:46;;;;;;;0.30;0.30;;;;;;;;;;5018564;28;20258;-79
2022/10/08 03:06:13;;;;;;;0.30;0.30;;;;;;;;;;5021447;28;20224;-79
2022/10/08 03:08:42;;;;;;;0.30;0.30;;;;;;;;;;5019701;28;20178;-79
2022/10/08 03:11:09;;;;;;;0.33;0.33;;;;;;;;;;5027256;28;20175;-79
2022/10/08 03:13:38;;;;;;;0.30;0.30;;;;;;;;;;5024845;28;20179;-80
2022/10/08 03:16:06;;;;;;;0.30;0.30;;;;;;;;;;5025971;28;20778;-80
2022/10/08 03:18:32;;;;;;;0.30;0.30;;;;;;;;;;5022725;28;20659;-80
2022/10/08 03:20:57;;;;;;;0.30;0.30;;;;;;;;;;5022602;28;20179;-80
2022/10/08 03:23:23;;;;;;;0.30;0.30;;;;;;;;;;5020126;28;20297;-80
2022/10/08 03:25:48;;;;;;;0.30;0.30;;;;;;;;;;5024688;28;20175;-80
2022/10/08 03:28:14;;;;;;;0.30;0.30;;;;;;;;;;5028682;28;20198;-80
2022/10/08 03:30:39;;;;;;;0.30;0.30;;;;;;;;;;5029702;28;20183;-80
2022/10/08 03:33:04;;;;;;;0.30;0.30;;;;;;;;;;5026225;28;20179;-80
2022/10/08 03:35:30;;;;;;;0.30;0.30;;;;;;;;;;5029112;28;20186;-80
2022/10/08 03:37:56;;;;;;;0.30;0.30;;;;;;;;;;5019816;28;20330;-80
2022/10/08 03:40:21;;;;;;;0.30;0.30;;;;;;;;;;5026621;28;20266;-80
2022/10/08 03:42:47;;;;;;;0.30;0.30;;;;;;;;;;5027673;28;20175;-79
2022/10/08 03:45:12;;;;;;;0.20;0.20;;;;;;;;;;5022660;28;20201;-78
2022/10/08 03:47:38;;;;;;;0.30;0.30;;;;;;;;;;5026983;28;20742;-77
2022/10/08 03:50:04;;;;;;;0.30;0.30;;;;;;;;;;5025150;28;20652;-78
2022/10/08 03:52:29;;;;;;;0.30;0.30;;;;;;;;;;5025941;28;20209;-80
2022/10/08 03:54:55;;;;;;;0.20;0.20;;;;;;;;;;5022221;28;20673;-78
2022/10/08 03:57:20;;;;;;;0.30;0.30;;;;;;;;;;5023029;28;20270;-78
2022/10/08 03:59:45;;;;;;;0.30;0.30;;;;;;;;;;5023127;28;20213;-80
2022/10/08 04:02:11;;;;;;;0.30;0.30;;;;;;;;;;5030180;28;20186;-79
2022/10/08 04:04:36;;;;;;;0.30;0.30;;;;;;;;;;5025964;28;20201;-80
2022/10/08 04:07:01;;;;;;;0.30;0.30;;;;;;;;;;5016537;28;20237;-79
2022/10/08 04:09:27;;;;;;;0.30;0.30;;;;;;;;;;5021337;28;20206;-79
2022/10/08 04:11:52;;;;;;;5.20;4.90;;;;;;;;;;5021527;28;20194;-80
2022/10/08 04:14:17;;;;;;;0.30;0.30;;;;;;;;;;5027646;28;20173;-79
2022/10/08 04:16:43;;;;;;;0.30;0.30;;;;;;;;;;5022669;28;20219;-79
2022/10/08 04:19:10;;;;;;;0.30;0.30;;;;;;;;;;5026817;28;20179;-80
2022/10/08 04:21:36;;;;;;;0.30;0.30;;;;;;;;;;5026214;28;20183;-78
2022/10/08 04:24:01;;;;;;;0.30;0.30;;;;;;;;;;5025707;28;20189;-81
2022/10/08 04:26:26;;;;;;;0.30;0.30;;;;;;;;;;5027767;28;20170;-80
2022/10/08 04:28:52;;;;;;;0.30;0.30;;;;;;;;;;5024480;28;20214;-80
2022/10/08 04:31:20;;;;;;;0.20;0.20;;;;;;;;;;5026623;28;20672;-79
2022/10/08 04:33:46;;;;;;;0.30;0.30;;;;;;;;;;5021766;28;20677;-79
2022/10/08 04:36:20;;;;;;;0.30;0.30;;;;;;;;;;5024524;28;20191;-79
2022/10/08 04:38:46;;;;;;;0.30;0.30;;;;;;;;;;5022887;28;20677;-79
2022/10/08 04:41:14;;;;;;;0.30;0.30;;;;;;;;;;5025091;28;20214;-79
2022/10/08 04:43:41;;;;;;;0.30;0.30;;;;;;;;;;5020358;28;20258;-80
2022/10/08 04:46:08;;;;;;;0.30;0.30;;;;;;;;;;5021864;28;20191;-79
2022/10/08 04:48:34;;;;;;;0.30;0.30;;;;;;;;;;5024488;28;20243;-80
2022/10/08 04:51:02;;;;;;;0.30;0.30;;;;;;;;;;5026407;28;20662;-80
2022/10/08 04:53:28;;;;;;;0.30;0.30;;;;;;;;;;5019419;28;20207;-81
2022/10/08 04:55:54;;;;;;;0.30;0.30;;;;;;;;;;5022773;28;20188;-82
2022/10/08 04:58:22;;;;;;;0.30;0.30;;;;;;;;;;5017326;28;20928;-82
2022/10/08 05:00:47;;;;;;;0.30;0.30;;;;;;;;;;5026326;28;20182;-81
2022/10/08 05:03:12;;;;;;;0.30;0.30;;;;;;;;;;5025447;28;20187;-81
2022/10/08 05:05:43;;;;;;;0.30;0.30;;;;;;;;;;5024644;28;20198;-82
2022/10/08 05:08:09;;;;;;;0.30;0.30;;;;;;;;;;5020826;28;20192;-82
2022/10/08 05:10:34;;;;;;;0.30;0.30;;;;;;;;;;5025019;28;20249;-82
2022/10/08 05:13:01;;;;;;;0.30;0.30;;;;;;;;;;5025870;28;20183;-87
2022/10/08 05:15:26;;;;;;;0.30;0.30;;;;;;;;;;5024239;28;20190;-79
2022/10/08 05:17:52;;;;;;;0.30;0.30;;;;;;;;;;5022395;28;20214;-79
2022/10/08 05:20:17;;;;;;;0.30;0.30;;;;;;;;;;5025567;28;20182;-80
2022/10/08 05:22:42;;;;;;;0.30;0.30;;;;;;;;;;5023939;28;20321;-79
2022/10/08 05:25:08;;;;;;;0.30;0.30;;;;;;;;;;5025852;28;20270;-78
2022/10/08 05:27:33;;;;;;;0.30;0.30;;;;;;;;;;5020854;28;20329;-79
2022/10/08 05:29:59;;;;;;;0.30;0.30;;;;;;;;;;5022420;28;20664;-79
2022/10/08 05:32:24;;;;;;;0.30;0.30;;;;;;;;;;5029290;28;20630;-79
2022/10/08 05:34:49;;;;;;;0.30;0.30;;;;;;;;;;5025419;28;20293;-79
2022/10/08 05:37:15;;;;;;;0.30;0.30;;;;;;;;;;5024078;28;20210;-80
2022/10/08 05:39:40;;;;;;;0.30;0.30;;;;;;;;;;5024840;28;20300;-80
2022/10/08 05:42:06;;;;;;;0.30;0.30;;;;;;;;;;5024454;28;20206;-80
2022/10/08 05:44:31;;;;;;;0.30;0.30;;;;;;;;;;5023419;28;20228;-80
2022/10/08 05:46:57;;;;;;;0.30;0.30;;;;;;;;;;5019786;28;20209;-79
2022/10/08 05:49:22;;;;;;;0.30;0.30;;;;;;;;;;5025782;28;20182;-80
2022/10/08 05:51:49;;;;;;;0.30;0.30;;;;;;;;;;5024855;28;20667;-80
2022/10/08 05:54:15;;;;;;;0.30;0.30;;;;;;;;;;5024165;28;20198;-80
2022/10/08 05:56:41;;;;;;;0.30;0.30;;;;;;;;;;5023195;28;20222;-81
2022/10/08 05:59:09;;;;;;;0.30;0.30;;;;;;;;;;5023769;28;20205;-79
2022/10/08 06:01:34;;;;;;;0.30;0.30;;;;;;;;;;5024143;28;20758;-79
2022/10/08 06:04:04;;;;;;;0.30;0.30;;;;;;;;;;5024425;28;20182;-80
2022/10/08 06:06:30;;;;;;;0.30;0.30;;;;;;;;;;5024412;28;20225;-79
2022/10/08 06:08:57;;;;;;;0.30;0.30;;;;;;;;;;5021369;28;20191;-82
2022/10/08 06:11:24;;;;;;;0.30;0.30;;;;;;;;;;5024104;28;20480;-89
2022/10/08 06:13:54;;;;;;;0.30;0.30;;;;;;;;;;5026847;28;20183;-89
2022/10/08 06:16:20;;;;;;;0.30;0.30;;;;;;;;;;5025300;28;20265;-88
2022/10/08 06:18:45;;;;;;;0.30;0.30;;;;;;;;;;5018420;28;20217;-86
2022/10/08 06:21:17;;;;;;;0.30;0.30;;;;;;;;;;5023414;28;20178;-86
2022/10/08 06:23:51;;;;;;;0.30;0.30;;;;;;;;;;5034167;28;20210;-85
2022/10/08 06:26:17;;;;;;;0.30;0.30;;;;;;;;;;5024020;28;20188;-86
2022/10/08 06:28:43;;;;;;;0.30;0.30;;;;;;;;;;5019932;28;20186;-86
2022/10/08 06:31:09;;;;;;;0.30;0.30;;;;;;;;;;5024346;28;20277;-86
2022/10/08 06:33:35;;;;;;;0.30;0.30;;;;;;;;;;5023689;28;20257;-86
2022/10/08 06:36:05;;;;;;;0.30;0.30;;;;;;;;;;5040560;28;20194;-87
2022/10/08 06:38:30;;;;;;;0.30;0.30;;;;;;;;;;5032083;28;20206;-86
2022/10/08 06:40:57;;;;;;;0.30;0.30;;;;;;;;;;5025650;28;20210;-83
2022/10/08 06:43:22;;;;;;;0.30;0.30;;;;;;;;;;5024720;28;20269;-82
2022/10/08 06:45:48;;;;;;;0.30;0.30;;;;;;;;;;5020488;28;20273;-82
2022/10/08 06:48:13;;;;;;;0.30;0.30;;;;;;;;;;5020112;28;20937;-83
2022/10/08 06:50:39;;;;;;;0.30;0.30;;;;;;;;;;5021828;28;20190;-85
2022/10/08 06:53:07;;;;;;;0.30;0.30;;;;;;;;;;5020221;28;20183;-84
2022/10/08 06:55:33;;;;;;;0.30;0.30;;;;;;;;;;5024615;28;20189;-84
2022/10/08 06:57:58;;;;;;;0.30;0.30;;;;;;;;;;5025145;28;20517;-81
2022/10/08 07:00:24;;;;;;;0.30;0.30;;;;;;;;;;5027609;28;20853;-81
2022/10/08 07:02:49;;;;;;;0.30;0.30;;;;;;;;;;5028072;28;20182;-80
2022/10/08 07:05:15;;;;;;;0.30;0.30;;;;;;;;;;5037117;28;20571;-80
2022/10/08 07:07:40;;;;;;;0.30;0.30;;;;;;;;;;5026840;28;20206;-80
2022/10/08 07:10:06;;;;;;;0.30;0.30;;;;;;;;;;5024193;28;20190;-79
2022/10/08 07:12:31;;;;;;;0.30;0.30;;;;;;;;;;5023700;28;20289;-79
2022/10/08 07:14:58;;;;;;;0.30;0.30;;;;;;;;;;5023682;28;20187;-80
2022/10/08 07:17:27;;;;;;;0.30;0.30;;;;;;;;;;5026573;28;20218;-79
2022/10/08 07:21:52;;;;;;;0.30;0.30;;;;;;;;;;5045155;27;20548;-71
2022/10/08 07:24:17;;;;;;;0.30;0.30;;;;;;;;;;5058669;28;20279;-71
2022/10/08 07:26:43;;;;;;;0.30;0.30;;;;;;;;;;5050207;28;20210;-71
2022/10/08 07:29:13;;;;;;;0.30;0.30;;;;;;;;;;5045859;28;20192;-73
2022/10/08 07:31:39;;;;;;;0.30;0.30;;;;;;;;;;5005545;27;20221;-73
2022/10/08 07:34:09;;;;;;;0.30;0.30;;;;;;;;;;5027826;28;20281;-72
2022/10/08 07:36:36;;;;;;;0.30;0.30;;;;;;;;;;5028443;28;20265;-72
2022/10/08 07:39:07;;;;;;;0.30;0.30;;;;;;;;;;5026478;28;20436;-72
2022/10/08 07:41:33;;;;;;;0.30;0.30;;;;;;;;;;5028971;28;20393;-72
2022/10/08 07:44:00;;;;;;;0.30;0.30;;;;;;;;;;5031176;28;20575;-73
2022/10/08 07:46:31;;;;;;;0.30;0.30;;;;;;;;;;5030867;28;20571;-72
2022/10/08 07:49:03;;;;;;;0.30;0.30;;;;;;;;;;5029416;28;20183;-72
2022/10/08 07:51:30;;;;;;;0.30;0.30;;;;;;;;;;5023368;28;20194;-73
2022/10/08 07:53:57;;;;;;;0.30;0.30;;;;;;;;;;5025215;28;20186;-72
2022/10/08 07:56:24;;;;;;;0.30;0.30;;;;;;;;;;5024250;28;20225;-73
2022/10/08 07:58:49;;;;;;;0.30;0.30;;;;;;;;;;5020872;28;20244;-72
2022/10/08 08:01:21;;;;;;;0.30;0.30;;;;;;;;;;5046933;28;20189;-73
2022/10/08 08:03:55;;;;;;;0.30;0.30;;;;;;;;;;5032108;28;20186;-72
2022/10/08 08:06:23;;;;;;;1.07;1.07;;;;;;;;;;5028055;28;20447;-72
2022/10/08 08:08:48;;;;;;;0.30;0.30;;;;;;;;;;5022218;28;20628;-72
2022/10/08 08:11:16;;;;;;;0.30;0.30;;;;;;;;;;5028911;28;20269;-73
2022/10/08 08:13:42;;;;;;;0.30;0.30;;;;;;;;;;5035701;28;20194;-73
2022/10/08 08:16:11;;;;;;;0.30;0.30;;;;;;;;;;5031338;28;20248;-73
2022/10/08 08:18:39;;;;;;;0.30;0.30;;;;;;;;;;5028849;28;20655;-73
2022/10/08 08:21:16;;;;;;;0.30;0.30;;;;;;;;;;5037784;28;20241;-73
2022/10/08 08:23:44;;;;;;;0.30;0.30;;;;;;;;;;5028763;28;20197;-73
2022/10/08 08:26:34;;;;;;;0.30;0.30;;;;;;;;;;5022740;28;20334;-73
2022/10/08 08:29:07;;;;;;;0.30;0.30;;;;;;;;;;5029078;28;20320;-73
2022/10/08 08:31:44;;;;;;;0.30;0.30;;;;;;;;;;5026452;28;20504;-73
2022/10/08 08:34:16;;;;;;;0.30;0.30;;;;;;;;;;5026238;28;20528;-72
2022/10/08 08:36:44;;;;;;;0.30;0.30;;;;;;;;;;5015539;28;20434;-72
2022/10/08 08:39:18;;;;;;;0.30;0.30;;;;;;;;;;5021928;28;20229;-72
2022/10/08 08:42:17;;;;;;;0.30;0.30;;;;;;;;;;5009859;28;20198;-72
2022/10/08 08:44:48;;;;;;;0.20;0.20;;;;;;;;;;5032627;28;20191;-72
2022/10/08 08:47:21;;;;;;;0.30;0.30;;;;;;;;;;5015840;28;20614;-72
2022/10/08 08:49:51;;;;;;;0.30;0.30;;;;;;;;;;5017161;28;20171;-72
2022/10/08 08:52:21;;;;;;;0.30;0.30;;;;;;;;;;5023852;28;20709;-72
2022/10/08 08:54:48;;;;;;;0.30;0.30;;;;;;;;;;5010206;28;20206;-72
2022/10/08 08:57:16;;;;;;;0.30;0.30;;;;;;;;;;5015242;28;21053;-72
2022/10/08 08:59:45;;;;;;;0.30;0.30;;;;;;;;;;5010664;28;20583;-71
2022/10/08 09:02:39;;;;;;;0.27;0.27;;;;;;;;;;5016174;28;20242;-72
2022/10/08 09:05:11;;;;;;;0.30;0.30;;;;;;;;;;5005999;28;20372;-71
2022/10/08 09:07:52;;;;;;;0.30;0.30;;;;;;;;;;5012244;28;20191;-74
2022/10/08 09:10:23;;;;;;;0.30;0.30;;;;;;;;;;5018168;28;20168;-73
2022/10/08 09:12:51;;;;;;;0.30;0.30;;;;;;;;;;5010390;28;20597;-73
2022/10/08 09:15:25;;;;;;;0.30;0.30;;;;;;;;;;5010510;28;20222;-71
2022/10/08 09:17:51;;;;;;;0.30;0.30;;;;;;;;;;5018245;28;20596;-71
2022/10/08 09:20:20;;;;;;;0.30;0.30;;;;;;;;;;5021434;28;20202;-71
2022/10/08 09:22:49;;;;;;;0.30;0.30;;;;;;;;;;5014040;28;20270;-71
2022/10/08 09:25:15;;;;;;;0.30;0.30;;;;;;;;;;5018885;28;20560;-72
2022/10/08 09:27:42;;;;;;;0.30;0.30;;;;;;;;;;5013829;28;20203;-72
2022/10/08 09:30:35;;;;;;;0.30;0.30;;;;;;;;;;5017576;28;20666;-72
2022/10/08 09:33:15;;;;;;;0.30;0.30;;;;;;;;;;5020269;28;20671;-72
2022/10/08 09:35:45;;;;;;;0.30;0.30;;;;;;;;;;5021771;28;20170;-72
2022/10/08 09:38:21;;;;;;;0.30;0.30;;;;;;;;;;5021318;28;20748;-72
2022/10/08 09:41:17;;;;;;;0.30;0.30;;;;;;;;;;5015125;28;20190;-72
2022/10/08 09:43:44;;;;;;;0.30;0.30;;;;;;;;;;5008126;28;20196;-72
2022/10/08 09:46:28;;;;;;;0.30;0.30;;;;;;;;;;5012076;28;20179;-71
2022/10/08 09:48:53;;;;;;;0.30;0.30;;;;;;;;;;5013315;28;20194;-71
2022/10/08 09:51:18;;;;;;;0.30;0.30;;;;;;;;;;5016390;28;20356;-71
2022/10/08 09:53:57;;;;;;;0.30;0.30;;;;;;;;;;5026580;28;20189;-70
2022/10/08 09:56:26;;;;;;;0.30;0.30;;;;;;;;;;5026742;28;20399;-71
2022/10/08 09:58:57;;;;;;;0.30;0.30;;;;;;;;;;5013884;28;20191;-70
2022/10/08 10:01:26;;;;;;;0.30;0.30;;;;;;;;;;5010697;28;20207;-70
2022/10/08 10:03:56;;;;;;;0.30;0.30;;;;;;;;;;5009253;28;20253;-71
2022/10/08 10:06:28;;;;;;;0.30;0.30;;;;;;;;;;5008452;28;20206;-71
2022/10/08 10:08:55;;;;;;;215.80;31.15;;;;;;;;;;5011757;28;20194;-70
2022/10/08 10:11:28;;;;;;;0.30;0.30;;;;;;;;;;5012656;28;20171;-70
2022/10/08 10:13:55;;;;;;;0.30;0.30;;;;;;;;;;5015453;28;20232;-70
2022/10/08 10:16:30;;;;;;;0.30;0.30;;;;;;;;;;5012077;28;20186;-70
2022/10/08 10:19:03;;;;;;;0.30;0.30;;;;;;;;;;5010283;28;20186;-70
2022/10/08 10:21:38;;;;;;;0.30;0.30;;;;;;;;;;5015002;28;20205;-70
2022/10/08 10:24:28;;;;;;;0.30;0.30;;;;;;;;;;5012466;28;20190;-70
2022/10/08 10:26:58;;;;;;;0.30;0.30;;;;;;;;;;5010357;28;20231;-70
2022/10/08 10:29:30;;;;;;;0.30;0.30;;;;;;;;;;5011909;28;20544;-69
2022/10/08 10:32:11;;;;;;;0.30;0.30;;;;;;;;;;5008885;28;20230;-72
2022/10/08 10:34:38;;;;;;;0.30;0.30;;;;;;;;;;5012237;28;20186;-71
2022/10/08 10:37:10;;;;;;;0.30;0.30;;;;;;;;;;5012825;28;20221;-71
2022/10/08 10:39:52;;;;;;;0.30;0.30;;;;;;;;;;5010659;28;20183;-73
2022/10/08 10:42:35;;;;;;;0.30;0.30;;;;;;;;;;5011217;28;20273;-71
2022/10/08 10:45:13;;;;;;;0.30;0.30;;;;;;;;;;5010513;28;20541;-70
2022/10/08 10:47:39;;;;;;;0.30;0.30;;;;;;;;;;5012810;28;20195;-70
2022/10/08 10:50:06;;;;;;;0.30;0.30;;;;;;;;;;5008077;28;20189;-70
2022/10/08 10:52:51;;;;;;;0.30;0.30;;;;;;;;;;5016801;28;20179;-70
2022/10/08 10:55:19;;;;;;;0.30;0.30;;;;;;;;;;5032089;28;20210;-70
2022/10/08 10:57:54;;;;;;;0.30;0.30;;;;;;;;;;5013937;28;20215;-71
2022/10/08 11:00:24;;;;;;;0.30;0.30;;;;;;;;;;5008274;28;20190;-71
2022/10/08 11:03:41;;;;;;;0.30;0.30;;;;;;;;;;5012660;28;20179;-70
2022/10/08 11:06:18;;;;;;;0.30;0.30;;;;;;;;;;5009008;28;20647;-70
2022/10/08 11:08:51;;;;;;;0.35;0.35;;;;;;;;;;5015292;28;20186;-71
2022/10/08 11:11:34;;;;;;;0.30;0.30;;;;;;;;;;5015677;28;20229;-71
2022/10/08 11:14:41;;;;;;;0.30;0.30;;;;;;;;;;5013452;28;20194;-70
2022/10/08 11:17:31;;;;;;;0.30;0.30;;;;;;;;;;5020203;28;20230;-71
2022/10/08 11:20:02;;;;;;;0.30;0.30;;;;;;;;;;5010814;28;20734;-72
2022/10/08 11:22:49;;;;;;;0.30;0.30;;;;;;;;;;5009093;28;20183;-70
2022/10/08 11:25:18;;;;;;;0.30;0.30;;;;;;;;;;5023006;28;20210;-71
2022/10/08 11:27:55;;;;;;;0.32;0.32;;;;;;;;;;5020446;28;20297;-71
2022/10/08 11:30:28;;;;;;;0.57;0.57;;;;;;;;;;5014737;28;20170;-71
2022/10/08 11:32:55;;;;;;;0.40;0.40;;;;;;;;;;5016273;28;20197;-72
2022/10/08 11:35:34;;;;;;;0.30;0.30;;;;;;;;;;5011273;28;20191;-71
2022/10/08 11:38:10;;;;;;;0.30;0.30;;;;;;;;;;5009561;28;20214;-71
2022/10/08 11:40:46;;;;;;;0.40;0.40;;;;;;;;;;5009225;28;20198;-72
2022/10/08 11:43:30;;;;;;;0.30;0.30;;;;;;;;;;5014205;28;20656;-72
2022/10/08 11:46:17;;;;;;;0.30;0.30;;;;;;;;;;5016240;28;20194;-71
2022/10/08 11:48:42;;;;;;;0.40;0.40;;;;;;;;;;5009953;28;20594;-71
2022/10/08 11:51:20;;;;;;;0.30;0.30;;;;;;;;;;5015098;28;20226;-71
2022/10/08 11:54:22;;;;;;;0.30;0.30;;;;;;;;;;5010645;28;20466;-70
2022/10/08 11:56:50;;;;;;;0.30;0.30;;;;;;;;;;5004031;28;20218;-71
2022/10/08 11:59:31;;;;;;;0.35;0.35;;;;;;;;;;5007967;28;20199;-71
2022/10/08 12:02:00;;;;;;;0.30;0.30;;;;;;;;;;5008680;28;20231;-71
2022/10/08 12:04:33;;;;;;;0.30;0.30;;;;;;;;;;5008531;28;20214;-71
2022/10/08 12:07:02;;;;;;;0.40;0.40;;;;;;;;;;5015286;28;20202;-72
2022/10/08 12:09:59;;;;;;;0.93;0.93;;;;;;;;;;5011661;28;20184;-73
2022/10/08 12:12:24;;;;;;;0.30;0.30;;;;;;;;;;5015443;28;20178;-72
2022/10/08 12:14:49;;;;;;;0.30;0.30;;;;;;;;;;5015648;28;20242;-72
2022/10/08 12:17:15;;;;;;;0.30;0.30;;;;;;;;;;5016489;28;20202;-73
2022/10/08 12:19:59;;;;;;;0.40;0.40;;;;;;;;;;5024096;28;20187;-73
2022/10/08 12:22:27;;;;;;;0.30;0.30;;;;;;;;;;5028231;28;20218;-72
2022/10/08 12:24:57;;;;;;;0.30;0.30;;;;;;;;;;5025438;28;20206;-73
2022/10/08 12:27:25;;;;;;;0.30;0.30;;;;;;;;;;5014551;28;20679;-72
2022/10/08 12:29:51;;;;;;;0.30;0.30;;;;;;;;;;5016868;28;20641;-73
2022/10/08 12:32:16;;;;;;;0.30;0.30;;;;;;;;;;5016604;28;20257;-73
2022/10/08 12:34:42;;;;;;;0.30;0.30;;;;;;;;;;5017659;28;20190;-70
2022/10/08 12:37:55;;;;;;;0.30;0.30;;;;;;;;;;5016553;28;20203;-72
2022/10/08 12:40:39;;;;;;;0.30;0.30;;;;;;;;;;5017947;28;20682;-73
2022/10/08 12:43:52;;;;;;;0.30;0.30;;;;;;;;;;5014298;28;20243;-73
2022/10/08 12:46:50;;;;;;;0.35;0.35;;;;;;;;;;5022152;28;20693;-73
2022/10/08 12:49:27;;;;;;;0.40;0.40;;;;;;;;;;5003651;28;20436;-73
2022/10/08 12:52:10;;;;;;;0.30;0.30;;;;;;;;;;5021025;28;20233;-71
2022/10/08 12:54:38;;;;;;;0.30;0.30;;;;;;;;;;5014745;28;20191;-71
2022/10/08 12:57:09;;;;;;;0.40;0.40;;;;;;;;;;5023570;28;20676;-72
2022/10/08 12:59:39;;;;;;;0.30;0.30;;;;;;;;;;5007916;28;20190;-72
2022/10/08 13:02:23;;;;;;;0.30;0.30;;;;;;;;;;5015536;28;20244;-71
2022/10/08 13:04:49;;;;;;;1.13;0.82;;;;;;;;;;5015759;28;20266;-71
2022/10/08 13:07:34;;;;;;;0.30;0.30;;;;;;;;;;5015004;28;20423;-72
2022/10/08 13:10:15;;;;;;;0.40;0.40;;;;;;;;;;5020413;28;20187;-71
2022/10/08 13:12:42;;;;;;;0.30;0.30;;;;;;;;;;5009858;28;20171;-71
2022/10/08 13:15:21;;;;;;;0.30;0.30;;;;;;;;;;5016362;28;20179;-71
2022/10/08 13:17:46;;;;;;;0.30;0.30;;;;;;;;;;5021997;28;20556;-71
2022/10/08 13:20:12;;;;;;;0.30;0.30;;;;;;;;;;5017201;28;20209;-71
2022/10/08 13:22:37;;;;;;;0.30;0.30;;;;;;;;;;5022550;28;20195;-71
2022/10/08 13:25:03;;;;;;;0.30;0.30;;;;;;;;;;5016314;28;20179;-70
2022/10/08 13:27:31;;;;;;;0.30;0.30;;;;;;;;;;5012438;28;20202;-70
2022/10/08 13:30:21;;;;;;;0.30;0.30;;;;;;;;;;5011377;28;20194;-71
2022/10/08 13:32:46;;;;;;;0.30;0.30;;;;;;;;;;5010900;28;20187;-70
2022/10/08 13:35:20;;;;;;;0.30;0.30;;;;;;;;;;5016416;28;20193;-70
2022/10/08 13:37:51;;;;;;;0.30;0.30;;;;;;;;;;5010129;28;20730;-71
2022/10/08 13:40:19;;;;;;;0.30;0.30;;;;;;;;;;5013263;28;20237;-71
2022/10/08 13:42:49;;;;;;;0.30;0.30;;;;;;;;;;5012921;28;20206;-71
2022/10/08 13:45:23;;;;;;;0.30;0.30;;;;;;;;;;5010560;28;22290;-69
2022/10/08 13:47:48;;;;;;;0.30;0.30;;;;;;;;;;5014612;28;20218;-70
2022/10/08 13:50:14;;;;;;;0.30;0.30;;;;;;;;;;5015804;28;20187;-71
2022/10/08 13:52:47;;;;;;;0.30;0.30;;;;;;;;;;5025936;28;20178;-71
2022/10/08 13:55:27;;;;;;;0.30;0.30;;;;;;;;;;5018685;28;20182;-70
2022/10/08 13:57:54;;;;;;;0.30;0.30;;;;;;;;;;5015030;28;20632;-71
2022/10/08 14:00:19;;;;;;;0.30;0.30;;;;;;;;;;5018682;28;20206;-70
2022/10/08 14:02:45;;;;;;;0.30;0.30;;;;;;;;;;5012444;28;20199;-70
2022/10/08 14:05:11;;;;;;;0.30;0.30;;;;;;;;;;5018777;28;20198;-71
2022/10/08 14:07:37;;;;;;;0.30;0.30;;;;;;;;;;5016687;28;20261;-70
2022/10/08 14:10:03;;;;;;;0.30;0.30;;;;;;;;;;5015943;28;20193;-71
2022/10/08 14:12:32;;;;;;;0.30;0.30;;;;;;;;;;5016983;28;20590;-71
2022/10/08 14:14:59;;;;;;;0.30;0.30;;;;;;;;;;5016358;28;20187;-70
2022/10/08 14:17:24;;;;;;;0.30;0.30;;;;;;;;;;5016292;28;20203;-71
2022/10/08 14:19:50;;;;;;;0.30;0.30;;;;;;;;;;5021395;28;20202;-71
2022/10/08 14:22:17;;;;;;;0.30;0.30;;;;;;;;;;5014912;28;20309;-71
2022/10/08 14:24:43;;;;;;;0.30;0.30;;;;;;;;;;5024663;28;20200;-71
2022/10/08 14:27:08;;;;;;;0.30;0.30;;;;;;;;;;5015859;28;20283;-71
2022/10/08 14:29:34;;;;;;;0.30;0.30;;;;;;;;;;5011954;28;20776;-70
2022/10/08 14:32:00;;;;;;;0.30;0.30;;;;;;;;;;5013393;28;20191;-70
2022/10/08 14:34:25;;;;;;;0.30;0.30;;;;;;;;;;5019232;28;20318;-70
2022/10/08 14:36:54;;;;;;;0.30;0.30;;;;;;;;;;5012833;28;20289;-72
2022/10/08 14:39:20;;;;;;;0.30;0.30;;;;;;;;;;5015751;28;20214;-71
2022/10/08 14:41:46;;;;;;;0.30;0.30;;;;;;;;;;5018939;28;20211;-70
2022/10/08 14:44:15;;;;;;;0.30;0.30;;;;;;;;;;5018303;28;20195;-71
2022/10/08 14:46:44;;;;;;;0.30;0.30;;;;;;;;;;5012761;28;20213;-71
2022/10/08 14:49:09;;;;;;;0.30;0.30;;;;;;;;;;5019189;28;20211;-72
2022/10/08 14:51:37;;;;;;;0.30;0.30;;;;;;;;;;5016893;28;20276;-71
2022/10/08 14:54:05;;;;;;;0.30;0.30;;;;;;;;;;5020105;28;20442;-71
2022/10/08 14:56:30;;;;;;;0.30;0.30;;;;;;;;;;5021293;28;20756;-71
2022/10/08 14:58:56;;;;;;;0.30;0.30;;;;;;;;;;5018461;28;20219;-71
2022/10/08 15:01:21;;;;;;;0.30;0.30;;;;;;;;;;5013004;28;20197;-71
2022/10/08 15:03:46;;;;;;;0.22;0.22;;;;;;;;;;5020828;28;20280;-71
2022/10/08 15:06:11;;;;;;;0.30;0.30;;;;;;;;;;5016142;28;20240;-72
2022/10/08 15:08:39;;;;;;;0.30;0.30;;;;;;;;;;5018074;28;20183;-71